sensor_id;sensor_type;location;lat;lon;timestamp;temperature;humidity
16247;DHT22;8231;50.866;7.944;2023-04-24T00:01:11;9.90;99.90
16247;DHT22;8231;50.866;7.944;2023-04-24T00:03:41;10.00;99.90
16247;DHT22;8231;50.866;7.944;2023-04-24T00:06:10;9.90;99.90
16247;DHT22;8231;50.866;7.944;2023-04-24T00:08:38;9.90;99.90
16247;DHT22;8231;50.866;7.944;2023-04-24T00:11:06;9.90;99.90
16247;DHT22;8231;50.866;7.944;2023-04-24T00:13:34;9.90;99.90
16247;DHT22;8231;50.866;7.944;2023-04-24T00:16:03;10.00;99.90
16247;DHT22;8231;50.866;7.944;2023-04-24T00:18:32;10.00;99.90
16247;DHT22;8231;50.866;7.944;2023-04-24T00:21:01;10.10;99.90
16247;DHT22;8231;50.866;7.944;2023-04-24T00:23:30;9.90;99.90
16247;DHT22;8231;50.866;7.944;2023-04-24T00:25:59;9.90;99.90
16247;DHT22;8231;50.866;7.944;2023-04-24T00:28:27;9.90;99.90
16247;DHT22;8231;50.866;7.944;2023-04-24T00:30:56;9.90;99.90
16247;DHT22;8231;50.866;7.944;2023-04-24T00:33:24;10.00;99.90
16247;DHT22;8231;50.866;7.944;2023-04-24T00:35:53;10.00;99.90
16247;DHT22;8231;50.866;7.944;2023-04-24T00:38:24;10.00;99.90
16247;DHT22;8231;50.866;7.944;2023-04-24T00:40:52;10.00;99.90
16247;DHT22;8231;50.866;7.944;2023-04-24T00:43:22;10.00;99.90
16247;DHT22;8231;50.866;7.944;2023-04-24T00:45:50;10.00;99.90
16247;DHT22;8231;50.866;7.944;2023-04-24T00:48:19;10.00;99.90
16247;DHT22;8231;50.866;7.944;2023-04-24T00:50:48;10.00;99.90
16247;DHT22;8231;50.866;7.944;2023-04-24T00:53:16;10.00;99.90
16247;DHT22;8231;50.866;7.944;2023-04-24T00:55:46;10.00;99.90
16247;DHT22;8231;50.866;7.944;2023-04-24T00:58:14;9.90;99.90
16247;DHT22;8231;50.866;7.944;2023-04-24T01:00:43;10.00;99.90
16247;DHT22;8231;50.866;7.944;2023-04-24T01:03:12;10.00;99.90
16247;DHT22;8231;50.866;7.944;2023-04-24T01:05:42;10.00;99.90
16247;DHT22;8231;50.866;7.944;2023-04-24T01:08:10;10.20;99.90
16247;DHT22;8231;50.866;7.944;2023-04-24T01:10:40;10.00;99.90
16247;DHT22;8231;50.866;7.944;2023-04-24T01:13:10;10.00;99.90
16247;DHT22;8231;50.866;7.944;2023-04-24T01:15:38;10.00;99.90
16247;DHT22;8231;50.866;7.944;2023-04-24T01:18:07;10.00;99.90
16247;DHT22;8231;50.866;7.944;2023-04-24T01:20:37;10.00;99.90
16247;DHT22;8231;50.866;7.944;2023-04-24T01:23:08;9.90;99.90
16247;DHT22;8231;50.866;7.944;2023-04-24T01:25:37;10.00;99.90
16247;DHT22;8231;50.866;7.944;2023-04-24T01:28:06;10.00;99.90
16247;DHT22;8231;50.866;7.944;2023-04-24T01:30:34;9.90;99.90
16247;DHT22;8231;50.866;7.944;2023-04-24T01:33:03;9.90;99.90
16247;DHT22;8231;50.866;7.944;2023-04-24T01:35:32;9.90;99.90
16247;DHT22;8231;50.866;7.944;2023-04-24T01:38:01;10.10;99.90
16247;DHT22;8231;50.866;7.944;2023-04-24T01:40:31;9.90;99.90
16247;DHT22;8231;50.866;7.944;2023-04-24T01:42:59;10.00;99.90
16247;DHT22;8231;50.866;7.944;2023-04-24T01:45:29;9.90;99.90
16247;DHT22;8231;50.866;7.944;2023-04-24T01:47:57;9.90;99.90
16247;DHT22;8231;50.866;7.944;2023-04-24T01:50:27;9.80;99.90
16247;DHT22;8231;50.866;7.944;2023-04-24T01:52:55;9.80;99.90
16247;DHT22;8231;50.866;7.944;2023-04-24T01:55:24;9.80;99.90
16247;DHT22;8231;50.866;7.944;2023-04-24T01:57:55;10.00;99.90
16247;DHT22;8231;50.866;7.944;2023-04-24T02:00:24;9.80;99.90
16247;DHT22;8231;50.866;7.944;2023-04-24T02:02:52;9.80;99.90
16247;DHT22;8231;50.866;7.944;2023-04-24T02:05:43;9.80;99.90
16247;DHT22;8231;50.866;7.944;2023-04-24T02:08:12;9.70;99.90
16247;DHT22;8231;50.866;7.944;2023-04-24T02:26:25;9.70;99.90
16247;DHT22;8231;50.866;7.944;2023-04-24T02:28:53;9.70;99.90
16247;DHT22;8231;50.866;7.944;2023-04-24T02:31:21;9.60;99.90
16247;DHT22;8231;50.866;7.944;2023-04-24T02:33:50;9.60;99.90
16247;DHT22;8231;50.866;7.944;2023-04-24T02:36:18;9.60;99.90
16247;DHT22;8231;50.866;7.944;2023-04-24T02:38:47;9.60;99.90
16247;DHT22;8231;50.866;7.944;2023-04-24T02:41:16;9.60;99.90
16247;DHT22;8231;50.866;7.944;2023-04-24T02:43:46;9.60;99.90
16247;DHT22;8231;50.866;7.944;2023-04-24T02:46:14;9.60;99.90
16247;DHT22;8231;50.866;7.944;2023-04-24T02:48:42;9.50;99.90
16247;DHT22;8231;50.866;7.944;2023-04-24T02:51:10;9.50;99.90
16247;DHT22;8231;50.866;7.944;2023-04-24T02:53:38;9.60;99.90
16247;DHT22;8231;50.866;7.944;2023-04-24T02:56:07;9.60;99.90
16247;DHT22;8231;50.866;7.944;2023-04-24T02:58:35;9.50;99.90
16247;DHT22;8231;50.866;7.944;2023-04-24T03:01:05;9.60;99.90
16247;DHT22;8231;50.866;7.944;2023-04-24T03:03:33;9.60;99.90
16247;DHT22;8231;50.866;7.944;2023-04-24T03:06:02;9.70;99.90
16247;DHT22;8231;50.866;7.944;2023-04-24T03:08:32;9.60;99.90
16247;DHT22;8231;50.866;7.944;2023-04-24T03:11:00;9.80;99.90
16247;DHT22;8231;50.866;7.944;2023-04-24T03:13:29;9.50;99.90
16247;DHT22;8231;50.866;7.944;2023-04-24T03:15:57;9.50;99.90
16247;DHT22;8231;50.866;7.944;2023-04-24T03:18:28;9.40;99.90
16247;DHT22;8231;50.866;7.944;2023-04-24T03:20:57;9.30;99.90
16247;DHT22;8231;50.866;7.944;2023-04-24T03:23:25;9.30;99.90
16247;DHT22;8231;50.866;7.944;2023-04-24T03:25:53;9.30;99.90
16247;DHT22;8231;50.866;7.944;2023-04-24T03:28:22;9.50;99.90
16247;DHT22;8231;50.866;7.944;2023-04-24T03:30:58;9.20;99.90
16247;DHT22;8231;50.866;7.944;2023-04-24T03:33:33;9.20;99.90
16247;DHT22;8231;50.866;7.944;2023-04-24T03:36:02;9.10;99.90
16247;DHT22;8231;50.866;7.944;2023-04-24T03:38:38;9.10;99.90
16247;DHT22;8231;50.866;7.944;2023-04-24T03:41:28;9.00;99.90
16247;DHT22;8231;50.866;7.944;2023-04-24T03:44:23;8.90;99.90
16247;DHT22;8231;50.866;7.944;2023-04-24T03:46:51;8.80;99.90
16247;DHT22;8231;50.866;7.944;2023-04-24T03:49:24;8.70;99.90
16247;DHT22;8231;50.866;7.944;2023-04-24T03:51:52;8.60;99.90
16247;DHT22;8231;50.866;7.944;2023-04-24T03:54:23;8.60;99.90
16247;DHT22;8231;50.866;7.944;2023-04-24T03:56:52;8.50;99.90
16247;DHT22;8231;50.866;7.944;2023-04-24T03:59:21;8.40;99.90
16247;DHT22;8231;50.866;7.944;2023-04-24T04:02:03;8.40;99.90
16247;DHT22;8231;50.866;7.944;2023-04-24T04:04:33;8.30;99.90
16247;DHT22;8231;50.866;7.944;2023-04-24T04:07:02;8.30;99.90
16247;DHT22;8231;50.866;7.944;2023-04-24T04:09:32;8.30;99.90
16247;DHT22;8231;50.866;7.944;2023-04-24T04:12:00;8.30;99.90
16247;DHT22;8231;50.866;7.944;2023-04-24T04:14:31;8.20;99.90
16247;DHT22;8231;50.866;7.944;2023-04-24T04:17:00;8.20;99.90
16247;DHT22;8231;50.866;7.944;2023-04-24T04:19:28;8.20;99.90
16247;DHT22;8231;50.866;7.944;2023-04-24T04:21:58;8.20;99.90
16247;DHT22;8231;50.866;7.944;2023-04-24T04:24:38;8.30;99.90
16247;DHT22;8231;50.866;7.944;2023-04-24T04:27:09;8.10;99.90
16247;DHT22;8231;50.866;7.944;2023-04-24T04:29:45;8.00;99.90
16247;DHT22;8231;50.866;7.944;2023-04-24T04:32:15;8.00;99.90
16247;DHT22;8231;50.866;7.944;2023-04-24T04:34:43;8.10;99.90
16247;DHT22;8231;50.866;7.944;2023-04-24T04:37:14;7.90;99.90
16247;DHT22;8231;50.866;7.944;2023-04-24T04:40:15;7.90;99.90
16247;DHT22;8231;50.866;7.944;2023-04-24T04:42:55;7.80;99.90
16247;DHT22;8231;50.866;7.944;2023-04-24T04:45:26;7.80;99.90
16247;DHT22;8231;50.866;7.944;2023-04-24T04:48:17;7.80;99.90
16247;DHT22;8231;50.866;7.944;2023-04-24T04:50:46;7.80;99.90
16247;DHT22;8231;50.866;7.944;2023-04-24T04:53:16;7.90;99.90
16247;DHT22;8231;50.866;7.944;2023-04-24T04:55:44;7.80;99.90
16247;DHT22;8231;50.866;7.944;2023-04-24T04:58:15;7.80;99.90
16247;DHT22;8231;50.866;7.944;2023-04-24T05:00:44;7.80;99.90
16247;DHT22;8231;50.866;7.944;2023-04-24T05:07:55;7.80;99.90
16247;DHT22;8231;50.866;7.944;2023-04-24T05:10:26;7.70;99.90
16247;DHT22;8231;50.866;7.944;2023-04-24T05:12:56;7.80;99.90
16247;DHT22;8231;50.866;7.944;2023-04-24T05:15:25;7.80;99.90
16247;DHT22;8231;50.866;7.944;2023-04-24T05:17:54;8.00;99.90
16247;DHT22;8231;50.866;7.944;2023-04-24T05:20:24;7.90;99.90
16247;DHT22;8231;50.866;7.944;2023-04-24T05:22:53;7.90;99.90
16247;DHT22;8231;50.866;7.944;2023-04-24T05:25:23;8.10;99.90
16247;DHT22;8231;50.866;7.944;2023-04-24T05:27:57;7.90;99.90
16247;DHT22;8231;50.866;7.944;2023-04-24T05:30:25;7.90;99.90
16247;DHT22;8231;50.866;7.944;2023-04-24T05:32:54;8.10;99.90
16247;DHT22;8231;50.866;7.944;2023-04-24T05:35:23;8.00;99.90
16247;DHT22;8231;50.866;7.944;2023-04-24T05:37:51;8.10;99.90
16247;DHT22;8231;50.866;7.944;2023-04-24T05:40:19;8.70;99.90
16247;DHT22;8231;50.866;7.944;2023-04-24T05:42:48;9.20;99.90
16247;DHT22;8231;50.866;7.944;2023-04-24T05:45:17;9.40;99.90
16247;DHT22;8231;50.866;7.944;2023-04-24T05:47:46;9.30;99.90
16247;DHT22;8231;50.866;7.944;2023-04-24T05:50:14;9.40;99.90
16247;DHT22;8231;50.866;7.944;2023-04-24T05:52:42;9.20;99.90
16247;DHT22;8231;50.866;7.944;2023-04-24T05:55:23;9.10;99.90
16247;DHT22;8231;50.866;7.944;2023-04-24T05:57:51;8.90;99.90
16247;DHT22;8231;50.866;7.944;2023-04-24T06:00:21;8.80;99.90
16247;DHT22;8231;50.866;7.944;2023-04-24T06:02:59;8.80;99.90
16247;DHT22;8231;50.866;7.944;2023-04-24T06:05:27;8.80;99.90
16247;DHT22;8231;50.866;7.944;2023-04-24T06:07:57;8.80;99.90
16247;DHT22;8231;50.866;7.944;2023-04-24T06:10:30;8.80;99.90
16247;DHT22;8231;50.866;7.944;2023-04-24T06:12:58;8.80;99.90
16247;DHT22;8231;50.866;7.944;2023-04-24T06:15:31;9.00;99.90
16247;DHT22;8231;50.866;7.944;2023-04-24T06:18:05;9.00;99.90
16247;DHT22;8231;50.866;7.944;2023-04-24T06:20:34;9.10;99.90
16247;DHT22;8231;50.866;7.944;2023-04-24T06:23:02;9.10;99.90
16247;DHT22;8231;50.866;7.944;2023-04-24T06:25:32;9.10;99.90
16247;DHT22;8231;50.866;7.944;2023-04-24T06:28:01;9.00;99.90
16247;DHT22;8231;50.866;7.944;2023-04-24T06:30:31;8.90;99.90
16247;DHT22;8231;50.866;7.944;2023-04-24T06:33:00;9.00;99.90
16247;DHT22;8231;50.866;7.944;2023-04-24T06:35:45;8.90;99.90
16247;DHT22;8231;50.866;7.944;2023-04-24T06:38:14;9.00;99.90
16247;DHT22;8231;50.866;7.944;2023-04-24T06:40:42;9.00;99.90
16247;DHT22;8231;50.866;7.944;2023-04-24T06:43:11;9.10;99.90
16247;DHT22;8231;50.866;7.944;2023-04-24T06:45:41;9.20;99.90
16247;DHT22;8231;50.866;7.944;2023-04-24T06:48:10;9.40;99.90
16247;DHT22;8231;50.866;7.944;2023-04-24T06:50:39;9.30;99.90
16247;DHT22;8231;50.866;7.944;2023-04-24T06:53:07;9.60;99.90
16247;DHT22;8231;50.866;7.944;2023-04-24T06:55:37;9.30;99.90
16247;DHT22;8231;50.866;7.944;2023-04-24T06:58:06;9.50;99.90
16247;DHT22;8231;50.866;7.944;2023-04-24T07:00:34;10.30;99.90
16247;DHT22;8231;50.866;7.944;2023-04-24T07:03:04;11.40;99.90
16247;DHT22;8231;50.866;7.944;2023-04-24T07:05:33;12.40;99.90
16247;DHT22;8231;50.866;7.944;2023-04-24T07:08:02;12.70;99.90
16247;DHT22;8231;50.866;7.944;2023-04-24T07:10:31;12.80;99.90
16247;DHT22;8231;50.866;7.944;2023-04-24T07:13:01;12.40;99.90
16247;DHT22;8231;50.866;7.944;2023-04-24T07:15:29;12.00;99.90
16247;DHT22;8231;50.866;7.944;2023-04-24T07:17:59;11.90;99.90
16247;DHT22;8231;50.866;7.944;2023-04-24T07:20:32;12.00;99.90
16247;DHT22;8231;50.866;7.944;2023-04-24T07:23:01;11.90;99.90
16247;DHT22;8231;50.866;7.944;2023-04-24T07:25:30;11.70;99.90
16247;DHT22;8231;50.866;7.944;2023-04-24T07:27:58;11.60;99.90
16247;DHT22;8231;50.866;7.944;2023-04-24T07:30:26;11.50;99.90
16247;DHT22;8231;50.866;7.944;2023-04-24T07:32:55;11.50;99.90
16247;DHT22;8231;50.866;7.944;2023-04-24T07:35:24;11.40;99.90
16247;DHT22;8231;50.866;7.944;2023-04-24T07:37:54;11.30;99.90
16247;DHT22;8231;50.866;7.944;2023-04-24T07:40:22;11.30;99.90
16247;DHT22;8231;50.866;7.944;2023-04-24T07:42:50;11.20;99.90
16247;DHT22;8231;50.866;7.944;2023-04-24T07:45:19;11.20;99.90
16247;DHT22;8231;50.866;7.944;2023-04-24T07:47:47;11.00;99.90
16247;DHT22;8231;50.866;7.944;2023-04-24T07:50:16;10.90;99.90
16247;DHT22;8231;50.866;7.944;2023-04-24T07:52:44;10.70;99.90
16247;DHT22;8231;50.866;7.944;2023-04-24T07:55:13;10.60;99.90
16247;DHT22;8231;50.866;7.944;2023-04-24T07:57:42;10.50;99.90
16247;DHT22;8231;50.866;7.944;2023-04-24T08:00:11;10.50;99.90
16247;DHT22;8231;50.866;7.944;2023-04-24T08:02:39;10.50;99.90
16247;DHT22;8231;50.866;7.944;2023-04-24T08:05:08;10.50;99.90
16247;DHT22;8231;50.866;7.944;2023-04-24T08:07:38;10.40;99.90
16247;DHT22;8231;50.866;7.944;2023-04-24T08:10:07;10.30;99.90
16247;DHT22;8231;50.866;7.944;2023-04-24T08:12:37;10.30;99.90
16247;DHT22;8231;50.866;7.944;2023-04-24T08:15:06;10.20;99.90
16247;DHT22;8231;50.866;7.944;2023-04-24T08:17:35;10.10;99.90
16247;DHT22;8231;50.866;7.944;2023-04-24T08:20:03;10.00;99.90
16247;DHT22;8231;50.866;7.944;2023-04-24T08:22:32;10.00;99.90
16247;DHT22;8231;50.866;7.944;2023-04-24T08:25:00;10.10;99.90
16247;DHT22;8231;50.866;7.944;2023-04-24T08:27:29;10.00;99.90
16247;DHT22;8231;50.866;7.944;2023-04-24T08:29:59;9.90;99.90
16247;DHT22;8231;50.866;7.944;2023-04-24T08:32:27;10.00;99.90
16247;DHT22;8231;50.866;7.944;2023-04-24T08:34:56;10.00;99.90
16247;DHT22;8231;50.866;7.944;2023-04-24T08:37:26;9.80;99.90
16247;DHT22;8231;50.866;7.944;2023-04-24T08:39:54;9.80;99.90
16247;DHT22;8231;50.866;7.944;2023-04-24T08:42:22;9.80;99.90
16247;DHT22;8231;50.866;7.944;2023-04-24T08:44:51;9.90;99.90
16247;DHT22;8231;50.866;7.944;2023-04-24T08:47:20;9.80;99.90
16247;DHT22;8231;50.866;7.944;2023-04-24T08:49:52;9.80;99.90
16247;DHT22;8231;50.866;7.944;2023-04-24T08:52:21;9.80;99.90
16247;DHT22;8231;50.866;7.944;2023-04-24T08:54:49;9.80;99.90
16247;DHT22;8231;50.866;7.944;2023-04-24T08:57:18;9.60;99.90
16247;DHT22;8231;50.866;7.944;2023-04-24T08:59:47;9.50;99.90
16247;DHT22;8231;50.866;7.944;2023-04-24T09:02:16;9.40;99.90
16247;DHT22;8231;50.866;7.944;2023-04-24T09:04:47;9.30;99.90
16247;DHT22;8231;50.866;7.944;2023-04-24T09:07:16;9.20;99.90
16247;DHT22;8231;50.866;7.944;2023-04-24T09:09:46;9.20;99.90
16247;DHT22;8231;50.866;7.944;2023-04-24T09:12:16;9.00;99.90
16247;DHT22;8231;50.866;7.944;2023-04-24T09:14:45;9.00;99.90
16247;DHT22;8231;50.866;7.944;2023-04-24T09:17:13;9.10;99.90
16247;DHT22;8231;50.866;7.944;2023-04-24T09:19:42;8.90;99.90
16247;DHT22;8231;50.866;7.944;2023-04-24T09:22:12;8.90;99.90
16247;DHT22;8231;50.866;7.944;2023-04-24T09:24:40;8.80;99.90
16247;DHT22;8231;50.866;7.944;2023-04-24T09:27:11;8.60;99.90
16247;DHT22;8231;50.866;7.944;2023-04-24T09:29:42;8.50;99.90
16247;DHT22;8231;50.866;7.944;2023-04-24T09:32:22;8.20;99.90
16247;DHT22;8231;50.866;7.944;2023-04-24T09:35:09;8.20;99.90
16247;DHT22;8231;50.866;7.944;2023-04-24T09:37:40;8.30;99.90
16247;DHT22;8231;50.866;7.944;2023-04-24T09:40:14;8.20;99.90
16247;DHT22;8231;50.866;7.944;2023-04-24T09:42:46;8.20;99.90
16247;DHT22;8231;50.866;7.944;2023-04-24T09:45:20;8.10;99.90
16247;DHT22;8231;50.866;7.944;2023-04-24T09:47:51;7.90;99.90
16247;DHT22;8231;50.866;7.944;2023-04-24T09:50:21;7.70;99.90
16247;DHT22;8231;50.866;7.944;2023-04-24T09:52:58;7.50;99.90
16247;DHT22;8231;50.866;7.944;2023-04-24T09:55:27;7.50;99.90
16247;DHT22;8231;50.866;7.944;2023-04-24T09:57:57;7.30;99.90
16247;DHT22;8231;50.866;7.944;2023-04-24T10:00:28;7.30;99.90
16247;DHT22;8231;50.866;7.944;2023-04-24T10:02:58;7.30;99.90
16247;DHT22;8231;50.866;7.944;2023-04-24T10:05:28;7.30;99.90
16247;DHT22;8231;50.866;7.944;2023-04-24T10:08:00;7.20;99.90
16247;DHT22;8231;50.866;7.944;2023-04-24T10:10:29;7.10;99.90
16247;DHT22;8231;50.866;7.944;2023-04-24T10:12:59;7.10;99.90
16247;DHT22;8231;50.866;7.944;2023-04-24T10:15:27;7.30;99.90
16247;DHT22;8231;50.866;7.944;2023-04-24T10:17:57;7.20;99.90
16247;DHT22;8231;50.866;7.944;2023-04-24T10:20:28;7.20;99.90
16247;DHT22;8231;50.866;7.944;2023-04-24T10:22:59;7.30;99.90
16247;DHT22;8231;50.866;7.944;2023-04-24T10:25:29;7.50;99.90
16247;DHT22;8231;50.866;7.944;2023-04-24T10:27:59;7.90;99.90
16247;DHT22;8231;50.866;7.944;2023-04-24T10:30:30;7.70;99.90
16247;DHT22;8231;50.866;7.944;2023-04-24T10:33:02;8.00;99.90
16247;DHT22;8231;50.866;7.944;2023-04-24T10:35:32;7.80;99.90
16247;DHT22;8231;50.866;7.944;2023-04-24T10:38:07;8.00;99.90
16247;DHT22;8231;50.866;7.944;2023-04-24T10:40:37;7.90;99.90
16247;DHT22;8231;50.866;7.944;2023-04-24T10:43:06;7.80;99.90
16247;DHT22;8231;50.866;7.944;2023-04-24T10:45:38;7.70;99.90
16247;DHT22;8231;50.866;7.944;2023-04-24T10:48:07;7.70;99.90
16247;DHT22;8231;50.866;7.944;2023-04-24T10:50:45;7.60;99.90
16247;DHT22;8231;50.866;7.944;2023-04-24T10:53:18;7.60;99.90
16247;DHT22;8231;50.866;7.944;2023-04-24T10:55:47;7.70;99.90
16247;DHT22;8231;50.866;7.944;2023-04-24T10:58:18;7.70;99.90
16247;DHT22;8231;50.866;7.944;2023-04-24T11:00:56;7.90;99.90
16247;DHT22;8231;50.866;7.944;2023-04-24T11:03:27;7.80;99.90
16247;DHT22;8231;50.866;7.944;2023-04-24T11:05:58;7.90;99.90
16247;DHT22;8231;50.866;7.944;2023-04-24T11:08:30;7.80;99.90
16247;DHT22;8231;50.866;7.944;2023-04-24T11:11:02;7.90;99.90
16247;DHT22;8231;50.866;7.944;2023-04-24T11:14:05;8.10;99.90
16247;DHT22;8231;50.866;7.944;2023-04-24T11:16:43;7.90;99.90
16247;DHT22;8231;50.866;7.944;2023-04-24T11:19:23;8.10;99.90
16247;DHT22;8231;50.866;7.944;2023-04-24T11:21:58;8.20;99.90
16247;DHT22;8231;50.866;7.944;2023-04-24T11:24:31;8.30;99.90
16247;DHT22;8231;50.866;7.944;2023-04-24T11:27:06;8.40;99.90
16247;DHT22;8231;50.866;7.944;2023-04-24T11:29:42;8.40;99.90
16247;DHT22;8231;50.866;7.944;2023-04-24T11:32:22;8.40;99.90
16247;DHT22;8231;50.866;7.944;2023-04-24T11:34:52;8.90;99.90
16247;DHT22;8231;50.866;7.944;2023-04-24T11:37:22;8.70;99.90
16247;DHT22;8231;50.866;7.944;2023-04-24T11:39:53;8.70;99.90
16247;DHT22;8231;50.866;7.944;2023-04-24T11:42:23;8.70;99.90
16247;DHT22;8231;50.866;7.944;2023-04-24T11:44:53;8.80;99.90
16247;DHT22;8231;50.866;7.944;2023-04-24T11:47:29;8.80;99.90
16247;DHT22;8231;50.866;7.944;2023-04-24T11:49:58;8.80;99.90
16247;DHT22;8231;50.866;7.944;2023-04-24T11:52:29;9.00;99.90
16247;DHT22;8231;50.866;7.944;2023-04-24T11:54:59;9.00;99.90
16247;DHT22;8231;50.866;7.944;2023-04-24T11:57:28;9.10;99.90
16247;DHT22;8231;50.866;7.944;2023-04-24T12:00:01;9.00;99.90
16247;DHT22;8231;50.866;7.944;2023-04-24T12:02:38;9.10;99.90
16247;DHT22;8231;50.866;7.944;2023-04-24T12:05:07;9.10;99.90
16247;DHT22;8231;50.866;7.944;2023-04-24T12:07:40;9.20;99.90
16247;DHT22;8231;50.866;7.944;2023-04-24T12:10:11;9.30;99.90
16247;DHT22;8231;50.866;7.944;2023-04-24T12:12:39;9.50;99.90
16247;DHT22;8231;50.866;7.944;2023-04-24T12:15:09;9.60;99.90
16247;DHT22;8231;50.866;7.944;2023-04-24T12:17:41;9.70;99.90
16247;DHT22;8231;50.866;7.944;2023-04-24T12:20:10;9.60;99.90
16247;DHT22;8231;50.866;7.944;2023-04-24T12:22:46;9.50;99.90
16247;DHT22;8231;50.866;7.944;2023-04-24T12:25:17;9.50;99.90
16247;DHT22;8231;50.866;7.944;2023-04-24T12:27:46;9.50;99.90
16247;DHT22;8231;50.866;7.944;2023-04-24T12:30:16;9.50;99.90
16247;DHT22;8231;50.866;7.944;2023-04-24T12:32:46;9.40;99.90
16247;DHT22;8231;50.866;7.944;2023-04-24T12:35:19;9.40;99.90
16247;DHT22;8231;50.866;7.944;2023-04-24T12:37:48;9.40;99.90
16247;DHT22;8231;50.866;7.944;2023-04-24T12:40:19;9.50;99.90
16247;DHT22;8231;50.866;7.944;2023-04-24T12:42:49;9.30;99.90
16247;DHT22;8231;50.866;7.944;2023-04-24T12:45:18;9.20;99.90
16247;DHT22;8231;50.866;7.944;2023-04-24T12:47:48;9.10;99.90
16247;DHT22;8231;50.866;7.944;2023-04-24T12:50:17;9.40;99.90
16247;DHT22;8231;50.866;7.944;2023-04-24T12:52:45;9.30;99.90
16247;DHT22;8231;50.866;7.944;2023-04-24T12:55:13;9.50;99.90
16247;DHT22;8231;50.866;7.944;2023-04-24T12:57:43;9.30;99.90
16247;DHT22;8231;50.866;7.944;2023-04-24T13:00:12;9.20;99.90
16247;DHT22;8231;50.866;7.944;2023-04-24T13:02:40;9.40;99.90
16247;DHT22;8231;50.866;7.944;2023-04-24T13:05:09;9.60;99.90
16247;DHT22;8231;50.866;7.944;2023-04-24T13:07:38;9.60;99.90
16247;DHT22;8231;50.866;7.944;2023-04-24T13:10:08;9.70;99.90
16247;DHT22;8231;50.866;7.944;2023-04-24T13:12:36;9.80;99.90
16247;DHT22;8231;50.866;7.944;2023-04-24T13:15:07;9.60;99.90
16247;DHT22;8231;50.866;7.944;2023-04-24T13:17:36;9.60;99.90
16247;DHT22;8231;50.866;7.944;2023-04-24T13:20:05;9.70;99.90
16247;DHT22;8231;50.866;7.944;2023-04-24T13:22:33;10.00;99.90
16247;DHT22;8231;50.866;7.944;2023-04-24T13:25:02;10.00;99.90
16247;DHT22;8231;50.866;7.944;2023-04-24T13:27:33;10.10;99.90
16247;DHT22;8231;50.866;7.944;2023-04-24T13:30:01;10.20;99.90
16247;DHT22;8231;50.866;7.944;2023-04-24T13:32:32;10.30;99.90
16247;DHT22;8231;50.866;7.944;2023-04-24T13:35:00;10.40;99.90
16247;DHT22;8231;50.866;7.944;2023-04-24T13:37:29;10.50;99.90
16247;DHT22;8231;50.866;7.944;2023-04-24T13:39:57;10.40;99.90
16247;DHT22;8231;50.866;7.944;2023-04-24T13:42:27;10.40;99.90
16247;DHT22;8231;50.866;7.944;2023-04-24T13:44:55;10.30;99.90
16247;DHT22;8231;50.866;7.944;2023-04-24T13:47:23;10.10;99.90
16247;DHT22;8231;50.866;7.944;2023-04-24T13:49:53;9.80;99.90
16247;DHT22;8231;50.866;7.944;2023-04-24T13:52:21;9.70;99.90
16247;DHT22;8231;50.866;7.944;2023-04-24T13:54:50;9.60;99.90
16247;DHT22;8231;50.866;7.944;2023-04-24T13:57:18;9.60;99.90
16247;DHT22;8231;50.866;7.944;2023-04-24T13:59:46;9.80;99.90
16247;DHT22;8231;50.866;7.944;2023-04-24T14:02:14;9.50;99.90
16247;DHT22;8231;50.866;7.944;2023-04-24T14:04:43;9.50;99.90
16247;DHT22;8231;50.866;7.944;2023-04-24T14:07:12;9.70;99.90
16247;DHT22;8231;50.866;7.944;2023-04-24T14:09:42;9.90;99.90
16247;DHT22;8231;50.866;7.944;2023-04-24T14:15:12;10.60;99.90
16247;DHT22;8231;50.866;7.944;2023-04-24T14:17:41;10.60;99.90
16247;DHT22;8231;50.866;7.944;2023-04-24T14:20:10;10.50;99.90
16247;DHT22;8231;50.866;7.944;2023-04-24T14:22:39;10.50;99.90
16247;DHT22;8231;50.866;7.944;2023-04-24T14:25:08;10.50;99.90
16247;DHT22;8231;50.866;7.944;2023-04-24T14:27:37;10.60;99.90
16247;DHT22;8231;50.866;7.944;2023-04-24T14:30:06;10.60;99.90
16247;DHT22;8231;50.866;7.944;2023-04-24T14:32:34;10.50;99.90
16247;DHT22;8231;50.866;7.944;2023-04-24T14:35:04;10.50;99.90
16247;DHT22;8231;50.866;7.944;2023-04-24T14:37:32;10.80;99.90
16247;DHT22;8231;50.866;7.944;2023-04-24T14:40:02;10.90;99.90
16247;DHT22;8231;50.866;7.944;2023-04-24T14:42:52;10.90;99.90
16247;DHT22;8231;50.866;7.944;2023-04-24T14:45:20;10.80;99.90
16247;DHT22;8231;50.866;7.944;2023-04-24T14:47:48;10.70;99.90
16247;DHT22;8231;50.866;7.944;2023-04-24T14:50:17;10.80;99.90
16247;DHT22;8231;50.866;7.944;2023-04-24T14:52:47;10.40;99.90
16247;DHT22;8231;50.866;7.944;2023-04-24T14:55:16;10.30;99.90
16247;DHT22;8231;50.866;7.944;2023-04-24T14:57:45;10.40;99.90
16247;DHT22;8231;50.866;7.944;2023-04-24T15:00:14;10.40;99.90
16247;DHT22;8231;50.866;7.944;2023-04-24T15:02:43;10.60;99.90
16247;DHT22;8231;50.866;7.944;2023-04-24T15:05:12;10.70;99.90
16247;DHT22;8231;50.866;7.944;2023-04-24T15:07:41;11.00;99.90
16247;DHT22;8231;50.866;7.944;2023-04-24T15:10:10;11.20;99.90
16247;DHT22;8231;50.866;7.944;2023-04-24T15:12:39;11.40;99.90
16247;DHT22;8231;50.866;7.944;2023-04-24T15:15:09;11.50;99.90
16247;DHT22;8231;50.866;7.944;2023-04-24T15:17:37;11.30;99.90
16247;DHT22;8231;50.866;7.944;2023-04-24T15:20:07;11.10;99.90
16247;DHT22;8231;50.866;7.944;2023-04-24T15:22:35;10.90;99.90
16247;DHT22;8231;50.866;7.944;2023-04-24T15:25:04;10.80;99.90
16247;DHT22;8231;50.866;7.944;2023-04-24T15:27:41;10.70;99.90
16247;DHT22;8231;50.866;7.944;2023-04-24T15:30:10;10.80;99.90
16247;DHT22;8231;50.866;7.944;2023-04-24T15:32:39;10.90;99.90
16247;DHT22;8231;50.866;7.944;2023-04-24T15:35:08;11.10;99.90
16247;DHT22;8231;50.866;7.944;2023-04-24T15:37:37;11.30;99.90
16247;DHT22;8231;50.866;7.944;2023-04-24T15:40:06;11.40;99.90
16247;DHT22;8231;50.866;7.944;2023-04-24T15:42:35;11.40;99.90
16247;DHT22;8231;50.866;7.944;2023-04-24T15:45:06;11.40;99.90
16247;DHT22;8231;50.866;7.944;2023-04-24T15:47:34;11.40;99.90
16247;DHT22;8231;50.866;7.944;2023-04-24T15:50:04;11.30;99.90
16247;DHT22;8231;50.866;7.944;2023-04-24T15:52:32;11.10;99.90
16247;DHT22;8231;50.866;7.944;2023-04-24T15:55:02;11.00;99.90
16247;DHT22;8231;50.866;7.944;2023-04-24T15:57:30;11.00;99.90
16247;DHT22;8231;50.866;7.944;2023-04-24T15:59:59;11.10;99.90
16247;DHT22;8231;50.866;7.944;2023-04-24T16:02:38;11.10;99.90
16247;DHT22;8231;50.866;7.944;2023-04-24T16:05:07;11.30;99.90
16247;DHT22;8231;50.866;7.944;2023-04-24T16:07:37;11.20;99.90
16247;DHT22;8231;50.866;7.944;2023-04-24T16:10:06;11.10;99.90
16247;DHT22;8231;50.866;7.944;2023-04-24T16:12:35;11.10;99.90
16247;DHT22;8231;50.866;7.944;2023-04-24T16:15:04;11.20;99.90
16247;DHT22;8231;50.866;7.944;2023-04-24T16:17:32;11.10;99.90
16247;DHT22;8231;50.866;7.944;2023-04-24T16:20:02;11.20;99.90
16247;DHT22;8231;50.866;7.944;2023-04-24T16:22:31;11.30;99.90
16247;DHT22;8231;50.866;7.944;2023-04-24T16:24:59;11.50;99.90
16247;DHT22;8231;50.866;7.944;2023-04-24T16:27:27;11.20;99.90
16247;DHT22;8231;50.866;7.944;2023-04-24T16:29:56;11.10;99.90
16247;DHT22;8231;50.866;7.944;2023-04-24T16:32:24;11.00;99.90
16247;DHT22;8231;50.866;7.944;2023-04-24T16:34:52;10.90;99.90
16247;DHT22;8231;50.866;7.944;2023-04-24T16:37:22;10.90;99.90
16247;DHT22;8231;50.866;7.944;2023-04-24T16:39:50;10.80;99.90